Time;durP1;ratioP1;P1;durP2;ratioP2;P2;SDS_P1;SDS_P2;PMS_P1;PMS_P2;Temp;Humidity;BMP_temperature;BMP_pressure;BME280_temperature;BME280_humidity;BME280_pressure;Samples;Min_cycle;Max_cycle;Signal;HPM_P1;HPM_P2
2023/08/11 00:00:25;;;;;;;32.03;21.05;;;;;;;;;;5131228;27;20031;-73
2023/08/11 00:02:52;;;;;;;22.27;16.17;;;;;;;;;;5131157;27;20037;-74
2023/08/11 00:05:19;;;;;;;26.30;18.88;;;;;;;;;;5131388;27;20497;-74
2023/08/11 00:07:45;;;;;;;25.15;18.38;;;;;;;;;;5130828;27;20080;-72
2023/08/11 00:10:14;;;;;;;33.70;20.08;;;;;;;;;;5131262;27;20028;-74
2023/08/11 00:12:40;;;;;;;38.10;25.60;;;;;;;;;;5130695;27;20098;-72
2023/08/11 00:15:06;;;;;;;24.45;17.05;;;;;;;;;;5132463;27;20126;-72
2023/08/11 00:17:33;;;;;;;46.97;26.13;;;;;;;;;;5114030;28;20058;-72
2023/08/11 00:19:59;;;;;;;47.38;25.80;;;;;;;;;;5131142;27;20162;-73
2023/08/11 00:22:25;;;;;;;36.15;22.23;;;;;;;;;;5112486;27;20035;-73
2023/08/11 00:24:52;;;;;;;39.03;26.60;;;;;;;;;;5131038;27;20035;-73
2023/08/11 00:27:19;;;;;;;40.65;26.20;;;;;;;;;;5112461;27;20039;-75
2023/08/11 00:29:46;;;;;;;40.47;25.52;;;;;;;;;;5095534;27;20663;-72
2023/08/11 00:32:13;;;;;;;49.28;28.15;;;;;;;;;;5112724;27;20028;-73
2023/08/11 00:34:39;;;;;;;35.55;22.95;;;;;;;;;;5133648;27;20043;-74
2023/08/11 00:37:05;;;;;;;39.80;23.70;;;;;;;;;;5134859;27;20489;-73
2023/08/11 00:39:31;;;;;;;44.47;26.95;;;;;;;;;;5134713;27;20192;-72
2023/08/11 00:41:57;;;;;;;39.83;23.67;;;;;;;;;;5134964;27;20039;-73
2023/08/11 00:44:23;;;;;;;37.75;23.67;;;;;;;;;;5134773;27;20031;-73
2023/08/11 00:46:49;;;;;;;54.63;25.35;;;;;;;;;;5116594;27;20042;-73
2023/08/11 00:49:15;;;;;;;50.05;29.55;;;;;;;;;;5117118;27;20041;-73
2023/08/11 00:51:41;;;;;;;56.20;29.35;;;;;;;;;;5134530;27;20110;-72
2023/08/11 00:54:07;;;;;;;57.88;31.80;;;;;;;;;;5116491;27;20031;-74
2023/08/11 00:56:33;;;;;;;54.20;34.05;;;;;;;;;;5115924;27;20035;-73
2023/08/11 00:58:59;;;;;;;52.17;30.90;;;;;;;;;;5116273;27;20524;-73
2023/08/11 01:01:25;;;;;;;57.28;35.38;;;;;;;;;;5134456;27;20505;-73
2023/08/11 01:03:51;;;;;;;64.95;33.63;;;;;;;;;;5134217;27;20047;-73
2023/08/11 01:06:24;;;;;;;60.65;32.63;;;;;;;;;;5116264;27;20409;-73
2023/08/11 01:08:56;;;;;;;50.08;29.15;;;;;;;;;;5134235;27;20074;-73
2023/08/11 01:11:31;;;;;;;46.30;29.10;;;;;;;;;;5134350;27;20030;-73
2023/08/11 01:14:02;;;;;;;44.72;28.48;;;;;;;;;;5134197;27;20086;-73
2023/08/11 01:16:29;;;;;;;43.38;26.38;;;;;;;;;;5099073;27;20079;-74
2023/08/11 01:18:55;;;;;;;43.47;26.40;;;;;;;;;;5098947;27;20097;-72
2023/08/11 01:21:22;;;;;;;50.03;27.33;;;;;;;;;;5098935;27;20087;-73
2023/08/11 01:23:47;;;;;;;51.17;27.08;;;;;;;;;;5133999;27;20233;-74
2023/08/11 01:26:13;;;;;;;46.88;28.88;;;;;;;;;;5115841;27;20066;-73
2023/08/11 01:28:40;;;;;;;55.15;32.72;;;;;;;;;;5133566;27;20588;-76
2023/08/11 01:31:08;;;;;;;62.50;32.42;;;;;;;;;;5134100;27;20050;-72
2023/08/11 01:33:35;;;;;;;51.35;28.27;;;;;;;;;;5133718;27;20035;-74
2023/08/11 01:36:01;;;;;;;45.47;25.23;;;;;;;;;;5115569;27;20039;-73
2023/08/11 01:38:26;;;;;;;43.15;28.10;;;;;;;;;;5115535;27;20501;-72
2023/08/11 01:40:53;;;;;;;44.05;25.55;;;;;;;;;;5115213;27;20509;-74
2023/08/11 01:43:19;;;;;;;40.13;25.45;;;;;;;;;;5133919;27;20540;-73
2023/08/11 01:45:45;;;;;;;36.03;24.77;;;;;;;;;;5133496;27;20035;-73
2023/08/11 01:48:10;;;;;;;40.22;24.35;;;;;;;;;;5133655;27;20039;-71
2023/08/11 01:50:37;;;;;;;34.15;22.10;;;;;;;;;;5115477;27;20023;-71
2023/08/11 01:53:03;;;;;;;31.38;22.33;;;;;;;;;;5115514;27;20122;-73
2023/08/11 01:55:29;;;;;;;30.67;21.92;;;;;;;;;;5115657;27;20076;-72
2023/08/11 01:57:55;;;;;;;27.75;20.83;;;;;;;;;;5115114;27;20031;-74
2023/08/11 02:00:21;;;;;;;32.90;20.42;;;;;;;;;;5115126;27;20035;-72
2023/08/11 02:02:47;;;;;;;27.88;19.65;;;;;;;;;;5133183;27;20087;-73
2023/08/11 02:05:15;;;;;;;27.42;19.55;;;;;;;;;;5115182;27;20042;-73
2023/08/11 02:07:42;;;;;;;29.17;19.48;;;;;;;;;;5132975;27;20112;-73
2023/08/11 02:10:08;;;;;;;28.73;19.30;;;;;;;;;;5133296;27;20035;-73
2023/08/11 02:12:36;;;;;;;26.02;18.10;;;;;;;;;;5132578;27;20042;-73
2023/08/11 02:15:06;;;;;;;26.17;16.17;;;;;;;;;;5133501;27;20416;-73
2023/08/11 02:17:33;;;;;;;20.05;15.23;;;;;;;;;;5132988;27;20066;-72
2023/08/11 02:22:46;;;;;;;18.08;13.93;;;;;;;;;;5114393;27;20689;-74
2023/08/11 02:25:13;;;;;;;19.48;15.13;;;;;;;;;;5114820;27;20038;-74
2023/08/11 02:27:39;;;;;;;15.10;12.75;;;;;;;;;;5114717;27;20043;-74
2023/08/11 02:30:06;;;;;;;24.63;12.80;;;;;;;;;;5115491;27;20072;-73
2023/08/11 02:32:34;;;;;;;16.67;12.95;;;;;;;;;;5136755;27;20066;-72
2023/08/11 02:35:00;;;;;;;17.88;13.20;;;;;;;;;;5140180;27;20043;-74
2023/08/11 02:37:26;;;;;;;18.88;14.00;;;;;;;;;;5122345;27;20039;-73
2023/08/11 02:39:53;;;;;;;20.35;13.25;;;;;;;;;;5121120;27;20577;-74
2023/08/11 02:42:19;;;;;;;15.73;12.68;;;;;;;;;;5132663;27;20042;-72
2023/08/11 02:44:45;;;;;;;14.68;13.18;;;;;;;;;;5097017;27;20038;-73
2023/08/11 02:47:11;;;;;;;13.90;12.60;;;;;;;;;;5132225;27;20039;-72
2023/08/11 02:49:37;;;;;;;16.15;12.90;;;;;;;;;;5113884;27;20031;-71
2023/08/11 02:52:03;;;;;;;15.40;12.93;;;;;;;;;;5131963;27;20027;-73
2023/08/11 02:54:29;;;;;;;13.70;12.23;;;;;;;;;;5113782;27;20042;-72
2023/08/11 02:56:56;;;;;;;14.65;12.15;;;;;;;;;;5131192;27;20035;-73
2023/08/11 02:59:21;;;;;;;14.60;13.07;;;;;;;;;;5132124;27;20652;-73
2023/08/11 03:01:48;;;;;;;13.35;10.65;;;;;;;;;;5113275;27;20039;-73
2023/08/11 03:04:17;;;;;;;15.98;11.30;;;;;;;;;;5113713;27;20035;-72
2023/08/11 03:06:46;;;;;;;12.50;11.35;;;;;;;;;;5096198;27;20096;-72
2023/08/11 03:09:12;;;;;;;13.93;12.30;;;;;;;;;;5131998;27;20122;-73
2023/08/11 03:11:39;;;;;;;13.50;12.32;;;;;;;;;;5131835;27;20378;-72
2023/08/11 03:14:05;;;;;;;14.18;12.65;;;;;;;;;;5098168;27;20051;-73
2023/08/11 03:16:32;;;;;;;17.65;12.50;;;;;;;;;;5114292;27;20035;-72
2023/08/11 03:18:59;;;;;;;16.92;13.32;;;;;;;;;;5113377;27;20446;-73
2023/08/11 03:21:26;;;;;;;14.02;12.77;;;;;;;;;;5131898;27;20031;-72
2023/08/11 03:23:53;;;;;;;14.30;13.13;;;;;;;;;;5113042;27;20554;-72
2023/08/11 03:26:20;;;;;;;14.80;13.45;;;;;;;;;;5113463;27;20035;-72
2023/08/11 03:28:46;;;;;;;14.18;12.98;;;;;;;;;;5112726;27;20574;-71
2023/08/11 03:31:13;;;;;;;13.68;12.45;;;;;;;;;;5113251;27;20035;-72
2023/08/11 03:33:43;;;;;;;14.97;13.10;;;;;;;;;;5112777;27;20035;-73
2023/08/11 03:36:12;;;;;;;13.13;11.80;;;;;;;;;;5113252;27;20369;-73
2023/08/11 03:38:39;;;;;;;13.90;11.50;;;;;;;;;;5112714;27;20078;-72
2023/08/11 03:41:06;;;;;;;14.52;12.35;;;;;;;;;;5113124;27;20088;-76
2023/08/11 03:43:32;;;;;;;16.42;11.60;;;;;;;;;;5131201;27;20175;-74
2023/08/11 03:45:59;;;;;;;14.18;12.05;;;;;;;;;;5112679;27;20050;-73
2023/08/11 03:48:26;;;;;;;12.65;11.50;;;;;;;;;;5113087;27;20508;-74
2023/08/11 03:50:52;;;;;;;14.35;13.00;;;;;;;;;;5112945;27;20039;-74
2023/08/11 03:53:18;;;;;;;17.77;15.30;;;;;;;;;;5096072;27;20849;-73
2023/08/11 03:55:47;;;;;;;22.77;15.35;;;;;;;;;;5112591;27;20055;-74
2023/08/11 03:58:15;;;;;;;14.85;13.18;;;;;;;;;;5112800;27;20031;-75
2023/08/11 04:00:42;;;;;;;14.20;12.70;;;;;;;;;;5095656;27;20039;-73
2023/08/11 04:03:12;;;;;;;13.27;10.90;;;;;;;;;;5112871;27;20477;-73
2023/08/11 04:05:38;;;;;;;13.80;11.23;;;;;;;;;;5112792;28;20049;-73
2023/08/11 04:08:04;;;;;;;11.63;10.63;;;;;;;;;;5131551;27;20054;-77
2023/08/11 04:10:31;;;;;;;13.25;10.90;;;;;;;;;;5135654;27;20058;-72
2023/08/11 04:12:57;;;;;;;10.02;8.95;;;;;;;;;;5116709;27;20059;-74
2023/08/11 04:15:24;;;;;;;10.80;9.80;;;;;;;;;;5135761;27;20031;-73
2023/08/11 04:17:52;;;;;;;10.07;9.20;;;;;;;;;;5116986;27;20396;-74
2023/08/11 04:20:18;;;;;;;11.00;9.90;;;;;;;;;;5135443;27;20035;-72
2023/08/11 04:22:45;;;;;;;10.43;9.32;;;;;;;;;;5099714;27;20493;-73
2023/08/11 04:25:11;;;;;;;12.25;9.95;;;;;;;;;;5117058;27;20088;-74
2023/08/11 04:27:41;;;;;;;;;;;;;;;;;;5100394;27;20047;-73
2023/08/11 04:30:07;;;;;;;9.40;8.43;;;;;;;;;;5116909;27;20412;-73
2023/08/11 04:32:34;;;;;;;9.82;8.88;;;;;;;;;;5116544;27;20038;-75
2023/08/11 04:35:06;;;;;;;9.18;8.38;;;;;;;;;;5116554;27;20422;-74
2023/08/11 04:37:33;;;;;;;8.53;7.73;;;;;;;;;;5099878;27;20509;-73
2023/08/11 04:40:02;;;;;;;8.38;7.50;;;;;;;;;;5116459;27;20027;-73
2023/08/11 04:42:29;;;;;;;15.77;7.32;;;;;;;;;;5134959;27;20035;-72
2023/08/11 04:44:57;;;;;;;7.57;6.28;;;;;;;;;;5116227;27;20058;-74
2023/08/11 04:47:23;;;;;;;6.57;6.03;;;;;;;;;;5116114;27;20516;-72
2023/08/11 04:49:49;;;;;;;6.18;5.57;;;;;;;;;;5099206;27;20050;-73
2023/08/11 04:52:17;;;;;;;8.95;6.25;;;;;;;;;;5116498;27;20039;-73
2023/08/11 04:54:44;;;;;;;6.97;5.20;;;;;;;;;;5115921;27;20042;-74
2023/08/11 04:57:11;;;;;;;6.15;5.60;;;;;;;;;;5099400;27;20062;-73
2023/08/11 04:59:37;;;;;;;5.70;5.30;;;;;;;;;;5134541;27;20115;-72
2023/08/11 05:02:03;;;;;;;5.82;5.40;;;;;;;;;;5133965;27;20122;-73
2023/08/11 05:04:29;;;;;;;6.05;5.50;;;;;;;;;;5134292;27;20031;-71
2023/08/11 05:06:55;;;;;;;6.18;5.57;;;;;;;;;;5133780;27;20043;-72
2023/08/11 05:09:21;;;;;;;6.65;5.38;;;;;;;;;;5116037;27;20501;-72
2023/08/11 05:11:47;;;;;;;6.40;5.80;;;;;;;;;;5133839;27;20023;-70
2023/08/11 05:14:15;;;;;;;7.55;6.38;;;;;;;;;;5098684;27;20055;-73
2023/08/11 05:16:41;;;;;;;6.40;5.90;;;;;;;;;;5134102;27;20043;-72
2023/08/11 05:19:07;;;;;;;6.50;6.10;;;;;;;;;;5133431;27;20076;-72
2023/08/11 05:21:34;;;;;;;7.57;5.88;;;;;;;;;;5134175;27;20045;-72
2023/08/11 05:24:00;;;;;;;5.68;5.38;;;;;;;;;;5133833;27;20084;-73
2023/08/11 05:26:26;;;;;;;6.00;5.50;;;;;;;;;;5134257;27;20069;-72
2023/08/11 05:28:52;;;;;;;6.38;5.22;;;;;;;;;;5133748;27;20042;-74
2023/08/11 05:31:18;;;;;;;5.90;5.40;;;;;;;;;;5134252;27;20523;-74
2023/08/11 05:33:44;;;;;;;5.15;4.85;;;;;;;;;;5133440;27;20507;-74
2023/08/11 05:36:10;;;;;;;5.65;5.25;;;;;;;;;;5115914;27;20071;-73
2023/08/11 05:38:37;;;;;;;5.85;5.45;;;;;;;;;;5134067;27;20062;-74
2023/08/11 05:41:03;;;;;;;6.13;5.63;;;;;;;;;;5098379;27;20039;-73
2023/08/11 05:43:29;;;;;;;6.63;6.03;;;;;;;;;;5134049;27;20084;-73
2023/08/11 05:45:55;;;;;;;6.45;5.93;;;;;;;;;;5116107;27;20039;-74
2023/08/11 05:48:21;;;;;;;6.50;6.03;;;;;;;;;;5133953;27;20601;-74
2023/08/11 05:50:50;;;;;;;7.03;6.45;;;;;;;;;;5135751;27;20124;-74
2023/08/11 05:53:16;;;;;;;7.15;6.55;;;;;;;;;;5119915;27;20449;-75
2023/08/11 05:55:42;;;;;;;7.18;6.68;;;;;;;;;;5136454;27;20066;-74
2023/08/11 05:58:08;;;;;;;6.93;6.38;;;;;;;;;;5115580;27;20035;-74
2023/08/11 06:00:34;;;;;;;6.85;6.15;;;;;;;;;;5115561;27;20031;-72
2023/08/11 06:03:00;;;;;;;6.50;5.90;;;;;;;;;;5133678;27;20035;-74
2023/08/11 06:05:26;;;;;;;6.63;6.03;;;;;;;;;;5135062;27;20042;-74
2023/08/11 06:07:53;;;;;;;6.85;6.35;;;;;;;;;;5134916;27;20043;-75
2023/08/11 06:10:19;;;;;;;6.38;5.68;;;;;;;;;;5119237;27;20035;-74
2023/08/11 06:12:45;;;;;;;8.52;5.97;;;;;;;;;;5136961;27;20487;-73
2023/08/11 06:15:12;;;;;;;6.18;5.72;;;;;;;;;;5134813;27;20533;-74
2023/08/11 06:17:38;;;;;;;6.68;6.10;;;;;;;;;;5133562;27;20052;-76
2023/08/11 06:20:05;;;;;;;6.18;5.53;;;;;;;;;;5132719;27;20095;-74
2023/08/11 06:22:31;;;;;;;7.15;6.55;;;;;;;;;;5097687;27;20497;-74
2023/08/11 06:24:58;;;;;;;6.28;5.78;;;;;;;;;;5114687;27;20035;-74
2023/08/11 06:27:25;;;;;;;6.60;6.10;;;;;;;;;;5097968;27;20047;-74
2023/08/11 06:29:52;;;;;;;7.13;5.97;;;;;;;;;;5097700;27;20062;-73
2023/08/11 06:32:18;;;;;;;6.18;5.65;;;;;;;;;;5132339;27;20464;-74
2023/08/11 06:34:44;;;;;;;7.65;5.78;;;;;;;;;;5133164;27;20091;-73
2023/08/11 06:37:10;;;;;;;6.65;6.18;;;;;;;;;;5114326;27;20043;-74
2023/08/11 06:39:38;;;;;;;6.28;5.85;;;;;;;;;;5115013;27;20224;-74
2023/08/11 06:42:04;;;;;;;6.07;5.53;;;;;;;;;;5132897;27;20536;-73
2023/08/11 06:44:59;;;;;;;5.80;5.30;;;;;;;;;;5097053;27;20083;-74
2023/08/11 06:47:26;;;;;;;5.60;5.20;;;;;;;;;;5132649;27;20035;-74
2023/08/11 06:49:52;;;;;;;5.72;5.32;;;;;;;;;;5132198;27;20031;-75
2023/08/11 06:52:18;;;;;;;5.10;4.80;;;;;;;;;;5132529;27;20054;-73
2023/08/11 06:54:44;;;;;;;5.22;4.70;;;;;;;;;;5132167;27;20037;-74
2023/08/11 06:57:10;;;;;;;4.78;4.47;;;;;;;;;;5132324;27;20031;-74
2023/08/11 06:59:36;;;;;;;5.20;4.80;;;;;;;;;;5132126;27;20023;-74
2023/08/11 07:02:02;;;;;;;5.47;4.90;;;;;;;;;;5132012;27;20084;-74
2023/08/11 07:04:28;;;;;;;4.93;4.53;;;;;;;;;;5132474;27;20031;-74
2023/08/11 07:06:55;;;;;;;4.88;4.57;;;;;;;;;;5132562;27;20039;-73
2023/08/11 07:09:21;;;;;;;4.97;4.68;;;;;;;;;;5134979;27;20071;-73
2023/08/11 07:11:47;;;;;;;5.40;5.03;;;;;;;;;;5137952;27;20083;-74
2023/08/11 07:14:13;;;;;;;5.40;5.00;;;;;;;;;;5137691;27;20051;-73
2023/08/11 07:16:39;;;;;;;5.07;4.72;;;;;;;;;;5138114;27;20459;-74
2023/08/11 07:19:05;;;;;;;7.63;4.93;;;;;;;;;;5138212;27;20064;-73
2023/08/11 07:21:31;;;;;;;5.85;5.35;;;;;;;;;;5121037;27;20125;-74
2023/08/11 07:23:57;;;;;;;6.55;5.93;;;;;;;;;;5136090;27;20035;-73
2023/08/11 07:26:23;;;;;;;6.40;5.80;;;;;;;;;;5132696;27;20039;-73
2023/08/11 07:28:49;;;;;;;5.60;5.20;;;;;;;;;;5132225;27;20561;-74
2023/08/11 07:31:15;;;;;;;5.80;5.40;;;;;;;;;;5132028;27;20404;-74
2023/08/11 07:33:42;;;;;;;6.38;5.03;;;;;;;;;;5132287;27;20030;-75
2023/08/11 07:36:08;;;;;;;5.50;5.00;;;;;;;;;;5131470;27;20134;-75
2023/08/11 07:38:35;;;;;;;5.25;4.85;;;;;;;;;;5113193;27;20119;-74
2023/08/11 07:41:02;;;;;;;5.63;5.07;;;;;;;;;;5130993;27;20054;-74
2023/08/11 07:43:28;;;;;;;5.78;5.35;;;;;;;;;;5131189;27;20078;-73
2023/08/11 07:45:55;;;;;;;5.20;4.90;;;;;;;;;;5112552;27;20031;-73
2023/08/11 07:48:21;;;;;;;4.63;4.35;;;;;;;;;;5131355;27;20047;-73
2023/08/11 07:50:47;;;;;;;5.55;5.15;;;;;;;;;;5131121;27;20459;-74
2023/08/11 07:53:13;;;;;;;4.70;4.28;;;;;;;;;;5112697;27;20192;-74
2023/08/11 07:55:40;;;;;;;5.85;5.10;;;;;;;;;;5131105;27;20117;-73
2023/08/11 07:58:06;;;;;;;5.60;5.10;;;;;;;;;;5130703;27;20058;-73
2023/08/11 08:00:32;;;;;;;5.40;4.90;;;;;;;;;;5112930;27;20031;-75
2023/08/11 08:02:58;;;;;;;5.35;4.90;;;;;;;;;;5130759;27;20080;-74
2023/08/11 08:05:24;;;;;;;5.75;5.35;;;;;;;;;;5131148;27;20087;-74
2023/08/11 08:07:50;;;;;;;5.68;5.32;;;;;;;;;;5112436;27;20046;-75
2023/08/11 08:10:17;;;;;;;5.10;4.75;;;;;;;;;;5130795;27;20031;-74
2023/08/11 08:12:45;;;;;;;6.32;5.22;;;;;;;;;;5130379;27;20047;-73
2023/08/11 08:15:11;;;;;;;6.00;5.43;;;;;;;;;;5131022;27;20485;-73
2023/08/11 08:17:38;;;;;;;9.23;5.25;;;;;;;;;;5130750;27;20035;-74
2023/08/11 08:20:13;;;;;;;9.75;6.20;;;;;;;;;;5130513;27;20519;-73
2023/08/11 08:22:41;;;;;;;7.53;6.05;;;;;;;;;;5112603;27;20023;-72
2023/08/11 08:25:07;;;;;;;6.93;6.25;;;;;;;;;;5130643;27;20027;-73
2023/08/11 08:27:33;;;;;;;6.55;5.90;;;;;;;;;;5130847;27;20417;-74
2023/08/11 08:29:59;;;;;;;6.57;6.13;;;;;;;;;;5130375;27;20039;-73
2023/08/11 08:32:26;;;;;;;9.73;6.38;;;;;;;;;;5112400;27;20434;-74
2023/08/11 08:34:53;;;;;;;11.52;7.32;;;;;;;;;;5130382;27;20037;-73
2023/08/11 08:37:19;;;;;;;8.30;6.20;;;;;;;;;;5130668;27;20067;-73
2023/08/11 08:39:48;;;;;;;7.60;7.00;;;;;;;;;;5112344;28;20040;-73
2023/08/11 08:42:17;;;;;;;7.07;6.47;;;;;;;;;;5130731;27;20057;-73
2023/08/11 08:44:43;;;;;;;7.05;6.55;;;;;;;;;;5131868;27;20042;-72
2023/08/11 08:47:09;;;;;;;7.32;6.68;;;;;;;;;;5131111;27;20141;-75
2023/08/11 08:49:38;;;;;;;7.47;6.78;;;;;;;;;;5113242;28;20058;-76
2023/08/11 08:52:05;;;;;;;8.27;7.25;;;;;;;;;;5131449;27;20187;-72
2023/08/11 08:54:31;;;;;;;6.82;6.20;;;;;;;;;;5132074;27;20054;-74
2023/08/11 08:56:57;;;;;;;7.45;6.85;;;;;;;;;;5134862;27;20027;-73
2023/08/11 08:59:23;;;;;;;6.80;6.20;;;;;;;;;;5116935;27;20447;-75
2023/08/11 09:01:50;;;;;;;6.65;6.07;;;;;;;;;;5101693;27;20491;-73
2023/08/11 09:04:16;;;;;;;7.63;7.03;;;;;;;;;;5118185;27;20066;-74
2023/08/11 09:06:42;;;;;;;6.90;6.35;;;;;;;;;;5138395;27;20168;-74
2023/08/11 09:09:08;;;;;;;7.70;6.60;;;;;;;;;;5134495;27;20047;-73
2023/08/11 09:11:35;;;;;;;10.13;6.35;;;;;;;;;;5116061;27;20031;-74
2023/08/11 09:14:01;;;;;;;6.72;6.13;;;;;;;;;;5133724;27;20527;-74
2023/08/11 09:16:28;;;;;;;8.35;7.55;;;;;;;;;;5134130;27;20099;-75
2023/08/11 09:18:54;;;;;;;7.43;6.82;;;;;;;;;;5115489;27;20493;-74
2023/08/11 09:21:22;;;;;;;7.55;6.85;;;;;;;;;;5133860;27;20038;-74
2023/08/11 09:23:49;;;;;;;6.00;5.55;;;;;;;;;;5133894;27;20035;-73
2023/08/11 09:26:14;;;;;;;8.02;7.43;;;;;;;;;;5133725;27;20035;-73
2023/08/11 09:28:41;;;;;;;7.55;7.05;;;;;;;;;;5133603;27;20556;-72
2023/08/11 09:31:07;;;;;;;8.70;7.90;;;;;;;;;;5133410;27;20027;-73
2023/08/11 09:33:34;;;;;;;8.65;8.15;;;;;;;;;;5133558;27;20046;-73
2023/08/11 09:36:00;;;;;;;7.93;7.45;;;;;;;;;;5115150;27;20092;-72
2023/08/11 09:38:27;;;;;;;10.35;8.48;;;;;;;;;;5133536;27;20467;-73
2023/08/11 09:40:53;;;;;;;8.23;7.40;;;;;;;;;;5133162;27;20092;-73
2023/08/11 09:43:19;;;;;;;8.05;7.43;;;;;;;;;;5133207;27;20039;-73
2023/08/11 09:45:45;;;;;;;7.68;6.90;;;;;;;;;;5133520;27;20121;-73
2023/08/11 09:48:11;;;;;;;8.25;7.65;;;;;;;;;;5133316;27;20183;-74
2023/08/11 09:50:37;;;;;;;7.95;7.28;;;;;;;;;;5098370;27;20130;-74
2023/08/11 09:53:04;;;;;;;7.18;6.60;;;;;;;;;;5114754;27;20039;-73
2023/08/11 09:55:30;;;;;;;7.63;7.07;;;;;;;;;;5116022;27;20044;-76
2023/08/11 09:57:56;;;;;;;7.57;6.97;;;;;;;;;;5134005;27;20054;-74
2023/08/11 10:00:23;;;;;;;8.05;7.40;;;;;;;;;;5133068;27;20078;-74
2023/08/11 10:02:55;;;;;;;8.10;7.50;;;;;;;;;;5114525;27;20191;-74
2023/08/11 10:05:21;;;;;;;12.02;8.93;;;;;;;;;;5132235;27;20039;-74
2023/08/11 10:07:47;;;;;;;7.80;7.20;;;;;;;;;;5132516;27;20126;-74
2023/08/11 10:10:14;;;;;;;7.30;6.60;;;;;;;;;;5114049;27;20027;-74
2023/08/11 10:12:55;;;;;;;8.02;7.43;;;;;;;;;;5133105;27;20084;-73
2023/08/11 10:15:22;;;;;;;8.00;7.47;;;;;;;;;;5114664;27;20421;-73
2023/08/11 10:17:48;;;;;;;8.52;7.18;;;;;;;;;;5114942;27;20070;-74
2023/08/11 10:20:14;;;;;;;7.63;7.03;;;;;;;;;;5114128;27;20030;-75
2023/08/11 10:22:41;;;;;;;7.30;6.65;;;;;;;;;;5132724;27;20122;-74
2023/08/11 10:25:07;;;;;;;8.00;7.20;;;;;;;;;;5113379;27;20417;-74
2023/08/11 10:27:33;;;;;;;7.88;7.28;;;;;;;;;;5113972;27;20100;-75
2023/08/11 10:29:59;;;;;;;8.00;7.07;;;;;;;;;;5113946;27;20031;-74
2023/08/11 10:32:31;;;;;;;8.30;7.53;;;;;;;;;;5113782;27;20054;-74
2023/08/11 10:34:57;;;;;;;7.40;6.80;;;;;;;;;;5114026;27;20027;-74
2023/08/11 10:37:23;;;;;;;8.15;7.55;;;;;;;;;;5132375;27;20175;-75
2023/08/11 10:40:01;;;;;;;8.82;8.02;;;;;;;;;;5113935;27;20088;-74
2023/08/11 10:42:28;;;;;;;11.93;8.63;;;;;;;;;;5132670;27;20027;-74
2023/08/11 10:44:54;;;;;;;8.68;7.82;;;;;;;;;;5113689;27;20042;-74
2023/08/11 10:47:20;;;;;;;8.05;7.30;;;;;;;;;;5113678;27;20505;-73
2023/08/11 10:49:46;;;;;;;8.07;7.47;;;;;;;;;;5132325;27;20054;-75
2023/08/11 10:52:13;;;;;;;8.68;7.22;;;;;;;;;;5132033;27;20505;-74
2023/08/11 10:54:39;;;;;;;7.90;7.28;;;;;;;;;;5132323;27;20036;-75
2023/08/11 10:57:05;;;;;;;9.57;7.00;;;;;;;;;;5113960;27;20031;-74
2023/08/11 10:59:31;;;;;;;8.63;7.93;;;;;;;;;;5132593;27;20050;-74
2023/08/11 11:01:59;;;;;;;7.72;7.00;;;;;;;;;;5132728;27;20038;-73
2023/08/11 11:04:30;;;;;;;7.75;7.10;;;;;;;;;;5113062;27;20176;-74
2023/08/11 11:06:56;;;;;;;8.30;7.40;;;;;;;;;;5131704;27;20060;-75
2023/08/11 11:09:22;;;;;;;10.07;8.13;;;;;;;;;;5113224;27;20519;-74
2023/08/11 11:11:51;;;;;;;11.27;7.13;;;;;;;;;;5133378;27;20064;-75
2023/08/11 11:14:17;;;;;;;7.80;7.10;;;;;;;;;;5097130;27;20146;-74
2023/08/11 11:16:42;;;;;;;7.93;7.22;;;;;;;;;;5133553;27;20417;-76
2023/08/11 11:19:09;;;;;;;10.15;8.00;;;;;;;;;;5113183;27;20083;-75
2023/08/11 11:21:35;;;;;;;9.63;7.45;;;;;;;;;;5114513;27;20515;-74
2023/08/11 11:24:01;;;;;;;8.40;7.70;;;;;;;;;;5113692;27;20035;-74
2023/08/11 11:26:28;;;;;;;8.50;7.80;;;;;;;;;;5131773;27;20096;-74
2023/08/11 11:28:55;;;;;;;7.85;7.15;;;;;;;;;;5131287;27;20603;-74
2023/08/11 11:31:21;;;;;;;6.85;6.28;;;;;;;;;;5112551;27;20481;-74
2023/08/11 11:33:47;;;;;;;7.93;7.32;;;;;;;;;;5131231;27;20113;-74
2023/08/11 11:36:14;;;;;;;8.27;7.78;;;;;;;;;;5131209;27;20058;-74
2023/08/11 11:38:40;;;;;;;8.38;7.63;;;;;;;;;;5113225;27;20027;-74
2023/08/11 11:41:16;;;;;;;9.13;7.40;;;;;;;;;;5131480;27;20537;-76
2023/08/11 11:43:43;;;;;;;9.50;7.65;;;;;;;;;;5113339;27;20035;-75
2023/08/11 11:46:15;;;;;;;9.73;6.95;;;;;;;;;;5113044;27;20043;-75
2023/08/11 11:48:43;;;;;;;13.63;7.75;;;;;;;;;;5114133;27;20046;-75
2023/08/11 11:51:09;;;;;;;11.88;7.13;;;;;;;;;;5131319;27;20390;-74
2023/08/11 11:53:35;;;;;;;8.32;6.80;;;;;;;;;;5131639;27;20031;-75
2023/08/11 11:56:03;;;;;;;8.02;7.20;;;;;;;;;;5131368;27;20072;-74
2023/08/11 11:58:29;;;;;;;6.97;6.28;;;;;;;;;;5113449;28;20042;-74
2023/08/11 12:00:55;;;;;;;8.10;7.40;;;;;;;;;;5134334;27;20042;-75
2023/08/11 12:03:22;;;;;;;7.97;7.18;;;;;;;;;;5116942;27;20104;-75
2023/08/11 12:05:48;;;;;;;9.20;7.00;;;;;;;;;;5133795;27;20050;-74
2023/08/11 12:08:18;;;;;;;7.43;6.85;;;;;;;;;;5138729;27;20441;-74
2023/08/11 12:10:47;;;;;;;9.10;8.18;;;;;;;;;;5124615;27;20027;-72
2023/08/11 12:13:13;;;;;;;7.70;7.00;;;;;;;;;;5115744;27;20582;-74
2023/08/11 12:15:39;;;;;;;7.93;7.20;;;;;;;;;;5130963;27;20092;-74
2023/08/11 12:18:05;;;;;;;10.27;6.47;;;;;;;;;;5130972;27;20060;-76
2023/08/11 12:20:31;;;;;;;7.60;6.75;;;;;;;;;;5130749;27;20027;-75
2023/08/11 12:22:59;;;;;;;8.68;7.38;;;;;;;;;;5130899;27;20035;-74
2023/08/11 12:25:26;;;;;;;8.00;7.20;;;;;;;;;;5130577;27;20080;-74
2023/08/11 12:27:55;;;;;;;10.23;7.82;;;;;;;;;;5130799;27;20078;-75
2023/08/11 12:30:21;;;;;;;8.25;7.55;;;;;;;;;;5133040;27;20446;-74
2023/08/11 12:32:47;;;;;;;9.85;7.70;;;;;;;;;;5135015;27;20031;-73
2023/08/11 12:35:13;;;;;;;8.40;7.60;;;;;;;;;;5134618;27;20050;-74
2023/08/11 12:37:39;;;;;;;9.52;8.65;;;;;;;;;;5134996;27;20038;-75
2023/08/11 12:40:09;;;;;;;8.38;7.63;;;;;;;;;;5134719;27;20525;-74
2023/08/11 12:42:36;;;;;;;8.52;7.88;;;;;;;;;;5134694;27;20059;-74
2023/08/11 12:45:04;;;;;;;10.00;9.02;;;;;;;;;;5134692;27;20046;-73
2023/08/11 12:47:31;;;;;;;8.98;8.18;;;;;;;;;;5134315;27;20039;-74
2023/08/11 12:49:57;;;;;;;9.13;8.23;;;;;;;;;;5134584;27;20035;-75
2023/08/11 12:52:23;;;;;;;10.95;8.15;;;;;;;;;;5134451;27;20035;-74
2023/08/11 12:54:49;;;;;;;10.95;9.30;;;;;;;;;;5116183;27;20039;-74
2023/08/11 12:57:15;;;;;;;10.18;8.15;;;;;;;;;;5115884;27;20027;-74
2023/08/11 12:59:42;;;;;;;9.65;8.80;;;;;;;;;;5116111;27;20119;-73
2023/08/11 13:02:08;;;;;;;11.23;8.73;;;;;;;;;;5134196;27;20042;-74
2023/08/11 13:04:34;;;;;;;13.05;8.55;;;;;;;;;;5115576;27;20031;-75
2023/08/11 13:07:00;;;;;;;9.00;8.18;;;;;;;;;;5134107;27;20054;-74
2023/08/11 13:09:27;;;;;;;8.20;7.35;;;;;;;;;;5115473;27;20035;-74
2023/08/11 13:11:53;;;;;;;9.38;8.10;;;;;;;;;;5134026;27;20028;-72
2023/08/11 13:14:19;;;;;;;11.13;8.40;;;;;;;;;;5133972;27;20051;-75
2023/08/11 13:16:45;;;;;;;11.48;8.10;;;;;;;;;;5134687;27;20038;-74
2023/08/11 13:19:12;;;;;;;11.10;7.35;;;;;;;;;;5116179;27;20035;-75
2023/08/11 13:21:38;;;;;;;12.32;7.20;;;;;;;;;;5116162;27;20054;-74
2023/08/11 13:24:04;;;;;;;8.45;6.47;;;;;;;;;;5134328;27;20035;-74
2023/08/11 13:26:31;;;;;;;10.45;6.97;;;;;;;;;;5134226;27;20066;-74
2023/08/11 13:28:58;;;;;;;12.57;7.68;;;;;;;;;;5134134;27;20054;-74
2023/08/11 13:31:25;;;;;;;8.07;7.25;;;;;;;;;;5134312;27;20027;-74
2023/08/11 13:33:51;;;;;;;7.70;7.07;;;;;;;;;;5116008;27;20037;-74
2023/08/11 13:36:18;;;;;;;7.47;6.80;;;;;;;;;;5133816;27;20030;-74
2023/08/11 13:38:44;;;;;;;8.02;7.22;;;;;;;;;;5134049;27;20053;-74
2023/08/11 13:41:10;;;;;;;7.97;7.38;;;;;;;;;;5133586;27;20142;-74
2023/08/11 13:43:37;;;;;;;8.55;7.70;;;;;;;;;;5115112;27;20069;-74
2023/08/11 13:46:03;;;;;;;11.18;8.30;;;;;;;;;;5133638;27;20450;-74
2023/08/11 13:48:29;;;;;;;8.57;7.78;;;;;;;;;;5133234;27;20053;-74
2023/08/11 13:50:55;;;;;;;9.43;8.43;;;;;;;;;;5133415;27;20461;-74
2023/08/11 13:53:21;;;;;;;10.25;7.82;;;;;;;;;;5133533;27;20027;-74
2023/08/11 13:55:47;;;;;;;11.20;8.13;;;;;;;;;;5133457;27;20035;-75
2023/08/11 13:58:13;;;;;;;10.80;7.85;;;;;;;;;;5115210;27;20035;-74
2023/08/11 14:00:40;;;;;;;9.55;8.25;;;;;;;;;;5133395;27;20065;-75
2023/08/11 14:03:06;;;;;;;16.88;8.32;;;;;;;;;;5133435;27;20077;-73
2023/08/11 14:05:32;;;;;;;11.95;8.50;;;;;;;;;;5114700;27;20043;-74
2023/08/11 14:07:58;;;;;;;13.93;9.55;;;;;;;;;;5081080;27;20039;-74
2023/08/11 14:10:24;;;;;;;11.07;9.65;;;;;;;;;;5133148;27;20142;-74
2023/08/11 14:12:50;;;;;;;11.75;9.73;;;;;;;;;;5133121;27;20046;-74
2023/08/11 14:15:16;;;;;;;9.82;8.80;;;;;;;;;;5132734;27;20528;-74
2023/08/11 14:17:42;;;;;;;9.85;8.98;;;;;;;;;;5133168;27;20039;-73
2023/08/11 14:20:08;;;;;;;10.15;9.15;;;;;;;;;;5114319;27;20027;-75
2023/08/11 14:22:34;;;;;;;9.73;9.00;;;;;;;;;;5133140;27;20042;-75
2023/08/11 14:25:00;;;;;;;8.90;8.10;;;;;;;;;;5115618;27;20027;-74
2023/08/11 14:27:26;;;;;;;9.07;8.18;;;;;;;;;;5134116;27;20043;-75
2023/08/11 14:29:52;;;;;;;9.85;8.88;;;;;;;;;;5134559;27;20118;-73
2023/08/11 14:32:18;;;;;;;8.90;8.00;;;;;;;;;;5134074;27;20045;-74